Time;durP1;ratioP1;P1;durP2;ratioP2;P2;SDS_P1;SDS_P2;PMS_P1;PMS_P2;Temp;Humidity;BMP_temperature;BMP_pressure;BME280_temperature;BME280_humidity;BME280_pressure;Samples;Min_cycle;Max_cycle;Signal;HPM_P1;HPM_P2
2022/06/07 00:00:46;;;;;;;14.15;10.50;;;;;;;11.97;100.00;163693.31;5068601;28;20071;-60
2022/06/07 00:03:12;;;;;;;13.02;11.23;;;;;;;11.99;100.00;163700.06;5070343;28;20020;-60
2022/06/07 00:05:40;;;;;;;13.93;12.63;;;;;;;12.04;100.00;163713.56;5068945;28;20561;-60
2022/06/07 00:08:06;;;;;;;13.75;12.35;;;;;;;12.00;100.00;163702.75;5069882;28;20024;-60
2022/06/07 00:10:31;;;;;;;14.68;13.38;;;;;;;11.98;100.00;163697.34;5068741;28;20123;-60
2022/06/07 00:12:57;;;;;;;13.60;12.32;;;;;;;11.97;100.00;163694.63;5069743;28;20028;-60
2022/06/07 00:15:22;;;;;;;14.50;13.13;;;;;;;11.96;100.00;163690.56;5068949;28;20098;-60
2022/06/07 00:17:47;;;;;;;15.73;13.85;;;;;;;11.92;100.00;163681.09;5070248;28;20025;-61
2022/06/07 00:20:13;;;;;;;15.88;14.40;;;;;;;11.93;100.00;163683.81;5068775;28;22043;-60
2022/06/07 00:22:39;;;;;;;16.08;14.05;;;;;;;11.90;100.00;163675.69;5069906;28;20025;-60
2022/06/07 00:25:07;;;;;;;18.08;15.10;;;;;;;11.87;100.00;163668.94;5068419;28;20071;-60
2022/06/07 00:27:32;;;;;;;17.48;15.95;;;;;;;12.10;100.00;163728.41;5069669;28;20028;-61
2022/06/07 00:29:58;;;;;;;19.27;16.50;;;;;;;12.10;100.00;163727.09;5068694;28;20017;-61
2022/06/07 00:32:24;;;;;;;18.13;15.07;;;;;;;11.99;100.00;163700.06;5070385;28;20439;-61
2022/06/07 00:34:50;;;;;;;23.90;18.45;;;;;;;11.99;100.00;163700.06;5069328;28;20055;-61
2022/06/07 00:37:15;;;;;;;24.17;18.30;;;;;;;11.97;100.00;163693.31;5069072;28;20124;-61
2022/06/07 00:39:41;;;;;;;19.95;17.92;;;;;;;11.98;100.00;163697.34;5070064;28;20107;-61
2022/06/07 00:42:06;;;;;;;19.95;18.05;;;;;;;11.97;100.00;163694.63;5067987;28;20037;-61
2022/06/07 00:44:38;;;;;;;21.27;19.15;;;;;;;11.98;100.00;163697.34;5070503;28;20032;-61
2022/06/07 00:47:11;;;;;;;20.77;18.67;;;;;;;11.97;100.00;163694.63;5068384;28;20389;-61
2022/06/07 00:49:47;;;;;;;21.88;19.45;;;;;;;12.02;100.00;163708.19;5069611;28;20155;-61
2022/06/07 00:52:12;;;;;;;20.52;18.48;;;;;;;12.10;100.00;163727.09;5068536;28;20040;-61
2022/06/07 00:54:38;;;;;;;22.08;19.77;;;;;;;12.04;100.00;163713.56;5069925;28;20031;-61
2022/06/07 00:57:04;;;;;;;25.45;22.73;;;;;;;12.01;100.00;163705.47;5067769;28;20325;-61
2022/06/07 00:59:30;;;;;;;22.58;20.45;;;;;;;11.95;100.00;163689.16;5070002;28;20123;-61
2022/06/07 01:01:56;;;;;;;24.65;21.55;;;;;;;12.03;100.00;163710.84;5068230;28;20037;-61
2022/06/07 01:04:23;;;;;;;24.48;21.88;;;;;;;12.09;100.00;163724.38;5070444;28;20024;-61
2022/06/07 01:12:17;;;;;;;27.73;24.30;;;;;;;12.16;100.00;163743.31;5071961;28;20044;-62
2022/06/07 01:14:42;;;;;;;32.10;25.90;;;;;;;12.27;100.00;163771.66;5073336;28;20032;-62
2022/06/07 01:17:08;;;;;;;31.90;28.45;;;;;;;12.27;100.00;163773.00;5072288;28;20697;-62
2022/06/07 01:19:33;;;;;;;29.85;26.58;;;;;;;12.29;100.00;163777.03;5073265;28;20040;-62
2022/06/07 01:21:58;;;;;;;30.70;27.40;;;;;;;12.28;100.00;163774.38;5071582;28;20136;-62
2022/06/07 01:24:24;;;;;;;37.45;30.77;;;;;;;12.27;100.00;163773.00;5073200;28;20423;-62
2022/06/07 01:26:50;;;;;;;35.10;29.77;;;;;;;12.29;100.00;163778.41;5071441;28;20044;-62
2022/06/07 01:29:16;;;;;;;36.63;30.75;;;;;;;12.40;100.00;163805.47;5073637;28;20127;-63
2022/06/07 01:31:43;;;;;;;40.83;34.95;;;;;;;12.41;100.00;163808.13;5071692;28;20085;-62
2022/06/07 01:34:10;;;;;;;41.85;33.58;;;;;;;12.43;100.00;163813.53;5072554;28;20099;-62
2022/06/07 01:36:35;;;;;;;38.80;33.30;;;;;;;12.48;100.00;163827.03;5071607;28;20048;-62
2022/06/07 01:41:54;;;;;;;44.33;35.65;;;;;;;12.50;100.00;163832.47;5071150;28;20433;-62
2022/06/07 01:44:20;;;;;;;37.63;32.85;;;;;;;12.49;100.00;163829.75;5073158;28;20024;-62
2022/06/07 01:46:45;;;;;;;39.97;33.80;;;;;;;12.48;100.00;163827.03;5071296;28;20052;-62
2022/06/07 01:49:11;;;;;;;40.92;34.55;;;;;;;12.50;100.00;163832.47;5072353;28;20027;-62
2022/06/07 01:51:36;;;;;;;38.38;31.20;;;;;;;12.48;100.00;163827.03;5071475;28;20044;-62
2022/06/07 01:54:01;;;;;;;41.80;32.25;;;;;;;12.45;100.00;163818.97;5071973;28;20017;-62
2022/06/07 01:56:27;;;;;;;43.88;31.92;;;;;;;12.47;100.00;163824.38;5071212;28;20499;-62
2022/06/07 01:58:52;;;;;;;46.88;34.58;;;;;;;12.39;100.00;163804.09;5072504;28;20031;-62
2022/06/07 02:01:18;;;;;;;42.70;33.75;;;;;;;12.44;100.00;163816.25;5071141;28;20089;-62
2022/06/07 02:03:43;;;;;;;39.83;32.05;;;;;;;12.52;100.00;163837.88;5072159;28;20024;-62
2022/06/07 02:06:13;;;;;;;40.70;31.25;;;;;;;12.56;100.00;163848.66;5071134;28;20412;-61
2022/06/07 02:08:40;;;;;;;38.28;30.95;;;;;;;12.56;100.00;163848.66;5072729;28;20093;-62
2022/06/07 02:11:12;;;;;;;42.00;33.37;;;;;;;12.52;100.00;163837.88;5070790;28;20067;-62
2022/06/07 02:13:38;;;;;;;39.42;31.63;;;;;;;12.53;100.00;163840.59;5072479;28;20074;-62
2022/06/07 02:16:04;;;;;;;43.80;31.85;;;;;;;12.55;100.00;163845.97;5070515;28;20032;-62
2022/06/07 02:18:30;;;;;;;40.40;32.75;;;;;;;12.51;100.00;163835.16;5071946;28;20029;-62
2022/06/07 02:20:57;;;;;;;42.58;34.08;;;;;;;12.54;100.00;163843.28;5070591;28;20067;-62
2022/06/07 02:23:23;;;;;;;44.88;32.58;;;;;;;12.51;100.00;163835.16;5072620;28;20024;-62
2022/06/07 02:25:55;;;;;;;45.42;32.67;;;;;;;12.52;100.00;163837.88;5070095;28;20052;-61
2022/06/07 02:28:24;;;;;;;41.38;33.47;;;;;;;12.63;100.00;163867.59;5072281;28;20044;-62
2022/06/07 02:30:49;;;;;;;48.85;34.55;;;;;;;12.59;100.00;163855.41;5070362;28;20130;-61
2022/06/07 02:33:15;;;;;;;56.13;33.13;;;;;;;12.61;100.00;163862.22;5071554;28;20016;-61
2022/06/07 02:35:42;;;;;;;41.05;34.17;;;;;;;12.60;100.00;163859.50;5070946;28;20139;-61
2022/06/07 02:38:09;;;;;;;40.17;32.67;;;;;;;12.53;100.00;163841.91;5071830;28;20355;-61
2022/06/07 02:40:35;;;;;;;50.53;33.97;;;;;;;12.56;100.00;163848.66;5070272;28;20128;-60
2022/06/07 02:43:01;;;;;;;49.03;35.47;;;;;;;12.51;100.00;163836.50;5071320;28;20039;-61
2022/06/07 02:45:27;;;;;;;44.63;33.95;;;;;;;12.53;100.00;163841.91;5070611;28;20056;-61
2022/06/07 02:47:53;;;;;;;51.25;36.45;;;;;;;12.59;100.00;163856.78;5070892;28;20020;-61
2022/06/07 02:50:18;;;;;;;47.17;35.25;;;;;;;12.63;100.00;163866.25;5070418;28;20044;-61
2022/06/07 02:52:44;;;;;;;44.40;34.17;;;;;;;12.66;100.00;163874.34;5071497;28;20016;-60
2022/06/07 02:55:09;;;;;;;43.22;33.58;;;;;;;12.64;100.00;163870.28;5069878;28;20024;-61
2022/06/07 02:57:35;;;;;;;45.65;33.58;;;;;;;12.61;100.00;163860.84;5071768;28;20024;-61
2022/06/07 03:00:00;;;;;;;38.47;30.88;;;;;;;12.59;100.00;163856.78;5069748;28;20424;-60
2022/06/07 03:02:26;;;;;;;40.60;32.83;;;;;;;12.61;100.00;163862.22;5071039;28;20029;-61
2022/06/07 03:04:51;;;;;;;45.53;31.52;;;;;;;12.56;100.00;163848.66;5071161;28;20024;-60
2022/06/07 03:07:16;;;;;;;38.42;32.13;;;;;;;12.56;100.00;163848.66;5069728;28;20124;-61
2022/06/07 03:09:42;;;;;;;38.38;34.30;;;;;;;12.57;100.00;163850.03;5071165;28;20032;-61
2022/06/07 03:12:07;;;;;;;42.10;32.30;;;;;;;12.55;100.00;163845.97;5069350;28;20040;-64
2022/06/07 03:14:33;;;;;;;44.47;32.67;;;;;;;12.56;100.00;163848.66;5070207;28;20029;-62
2022/06/07 03:16:58;;;;;;;37.35;30.35;;;;;;;12.57;100.00;163851.38;5068031;28;20047;-62
2022/06/07 03:19:23;;;;;;;39.58;30.77;;;;;;;12.58;100.00;163852.75;5071049;28;20383;-62
2022/06/07 03:21:49;;;;;;;35.45;31.25;;;;;;;12.56;100.00;163848.66;5069733;28;20040;-62
2022/06/07 03:24:14;;;;;;;42.00;32.72;;;;;;;12.55;100.00;163845.97;5070551;28;20028;-62
2022/06/07 03:26:39;;;;;;;38.90;32.72;;;;;;;12.47;100.00;163824.38;5069449;28;20044;-62
2022/06/07 03:29:05;;;;;;;33.00;29.33;;;;;;;12.56;100.00;163847.34;5069815;28;20484;-62
2022/06/07 03:31:30;;;;;;;35.20;26.98;;;;;;;12.53;100.00;163840.59;5051540;28;20056;-62
2022/06/07 03:33:56;;;;;;;36.60;28.67;;;;;;;12.52;100.00;163837.88;5070603;28;20361;-62
2022/06/07 03:36:24;;;;;;;34.17;30.40;;;;;;;12.51;100.00;163836.50;5069399;28;20613;-62
2022/06/07 03:38:51;;;;;;;38.53;28.98;;;;;;;12.48;100.00;163828.41;5069847;28;20032;-62
2022/06/07 03:41:21;;;;;;;35.40;28.58;;;;;;;12.53;100.00;163840.59;5069404;28;20106;-62
2022/06/07 03:43:47;;;;;;;33.17;28.17;;;;;;;12.53;100.00;163840.59;5070570;28;20016;-62
2022/06/07 03:46:16;;;;;;;35.90;27.80;;;;;;;12.56;100.00;163847.34;5068571;28;20040;-62
2022/06/07 03:48:42;;;;;;;33.97;27.67;;;;;;;12.56;100.00;163847.34;5069719;28;20544;-62
2022/06/07 03:51:09;;;;;;;30.17;25.40;;;;;;;12.51;100.00;163835.16;5069413;28;20052;-62
2022/06/07 03:53:35;;;;;;;33.95;26.65;;;;;;;12.54;100.00;163843.28;5070274;28;20020;-62
2022/06/07 03:56:00;;;;;;;30.77;26.35;;;;;;;12.51;100.00;163835.16;5068998;28;20071;-62
2022/06/07 03:58:26;;;;;;;33.15;28.63;;;;;;;12.52;100.00;163837.88;5070591;28;20620;-62
2022/06/07 04:00:54;;;;;;;32.55;27.13;;;;;;;12.48;100.00;163827.03;5068750;28;20074;-62
2022/06/07 04:03:20;;;;;;;;;;;;;;;12.47;100.00;163824.38;5070998;28;20028;-60
2022/06/07 04:05:45;;;;;;;39.28;28.67;;;;;;;12.49;100.00;163829.75;5068825;28;19960;-60
2022/06/07 04:08:11;;;;;;;39.88;30.77;;;;;;;12.44;100.00;163816.25;5066457;28;20087;-60
2022/06/07 04:10:43;;;;;;;34.90;30.10;;;;;;;12.44;100.00;163816.25;5066694;28;20128;-60
2022/06/07 04:13:09;;;;;;;33.08;29.38;;;;;;;12.50;100.00;163832.47;5070518;28;20066;-60
2022/06/07 04:15:34;;;;;;;37.65;29.40;;;;;;;12.48;100.00;163827.03;5068474;28;20040;-60
2022/06/07 04:17:59;;;;;;;29.98;25.58;;;;;;;12.47;100.00;163824.38;5070291;28;20035;-60
2022/06/07 04:20:25;;;;;;;31.05;26.85;;;;;;;12.52;100.00;163839.22;5068923;28;20044;-60
2022/06/07 04:22:50;;;;;;;35.10;27.63;;;;;;;12.48;100.00;163828.41;5069877;28;20024;-60
2022/06/07 04:25:16;;;;;;;39.92;30.15;;;;;;;12.46;100.00;163823.00;5062682;28;20045;-60
2022/06/07 04:27:41;;;;;;;33.03;28.80;;;;;;;12.50;100.00;163832.47;5058550;28;20021;-60
2022/06/07 04:30:07;;;;;;;35.13;29.75;;;;;;;12.46;100.00;163823.00;5059539;28;20048;-60
2022/06/07 04:32:33;;;;;;;38.85;32.05;;;;;;;12.44;100.00;163816.25;5070485;28;20438;-60
2022/06/07 04:34:59;;;;;;;36.35;32.20;;;;;;;12.41;100.00;163809.50;5068676;28;20097;-60
2022/06/07 04:37:24;;;;;;;39.72;32.42;;;;;;;12.45;100.00;163818.97;5069864;28;20462;-60
2022/06/07 04:39:50;;;;;;;36.03;30.35;;;;;;;12.44;100.00;163816.25;5073328;28;20033;-60
2022/06/07 04:42:15;;;;;;;37.67;29.77;;;;;;;12.40;100.00;163806.78;5072739;28;20032;-60
2022/06/07 04:44:41;;;;;;;42.17;32.42;;;;;;;12.36;100.00;163797.34;5074534;28;20024;-60
2022/06/07 04:47:06;;;;;;;39.78;33.05;;;;;;;12.30;100.00;163781.13;5071996;28;20519;-60
2022/06/07 04:49:32;;;;;;;39.80;35.03;;;;;;;12.33;100.00;163789.22;5074046;28;20032;-60
2022/06/07 04:51:57;;;;;;;37.22;33.03;;;;;;;12.38;100.00;163802.75;5072439;28;20064;-61
2022/06/07 04:54:22;;;;;;;41.20;33.35;;;;;;;12.38;100.00;163801.38;5073856;28;20032;-60
2022/06/07 04:56:48;;;;;;;42.08;36.33;;;;;;;12.33;100.00;163787.88;5072465;28;20044;-60
2022/06/07 04:59:13;;;;;;;44.22;37.80;;;;;;;12.34;100.00;163791.91;5074186;28;20086;-61
2022/06/07 05:01:42;;;;;;;40.15;35.15;;;;;;;12.35;100.00;163794.63;5072082;28;20032;-60
2022/06/07 05:04:07;;;;;;;47.42;39.35;;;;;;;12.44;100.00;163816.25;5073748;28;20165;-62
2022/06/07 05:06:37;;;;;;;41.95;35.30;;;;;;;12.30;100.00;163781.13;5072411;28;20036;-60
2022/06/07 05:09:06;;;;;;;48.25;36.95;;;;;;;12.35;100.00;163794.63;5073067;28;20119;-60
2022/06/07 05:11:32;;;;;;;52.88;38.60;;;;;;;12.63;100.00;163867.59;5072379;28;20059;-60
2022/06/07 05:13:59;;;;;;;49.70;38.72;;;;;;;12.74;100.00;163894.63;5073335;28;20463;-60
2022/06/07 05:16:25;;;;;;;45.78;34.97;;;;;;;12.81;100.00;163913.56;5071710;28;20045;-60
2022/06/07 05:18:52;;;;;;;37.05;32.20;;;;;;;12.76;100.00;163900.06;5073404;28;20021;-60
2022/06/07 05:21:19;;;;;;;51.78;35.50;;;;;;;12.84;100.00;163921.69;5068273;28;20075;-60
2022/06/07 05:23:44;;;;;;;37.47;32.08;;;;;;;12.99;100.00;163960.88;5054912;28;20567;-60
2022/06/07 05:26:13;;;;;;;35.42;31.65;;;;;;;13.07;100.00;163981.16;5050566;28;20056;-60
2022/06/07 05:28:42;;;;;;;44.65;34.55;;;;;;;13.15;100.00;164002.75;5053478;28;20060;-64
2022/06/07 05:31:07;;;;;;;58.25;37.78;;;;;;;13.28;100.00;164037.94;5051458;28;20048;-61
2022/06/07 05:33:33;;;;;;;37.83;30.67;;;;;;;13.42;100.00;164074.47;5053201;28;20040;-58
2022/06/07 05:35:58;;;;;;;40.80;32.33;;;;;;;13.45;100.00;164081.22;5051663;28;20102;-58
2022/06/07 05:38:25;;;;;;;34.97;29.50;;;;;;;13.50;100.00;164094.78;5052885;28;20032;-58
2022/06/07 05:40:53;;;;;;;33.75;30.13;;;;;;;13.37;100.00;164059.53;5051564;28;20124;-58
2022/06/07 05:43:19;;;;;;;37.45;31.27;;;;;;;13.50;100.00;164094.78;5053138;28;20029;-58
2022/06/07 05:45:49;;;;;;;34.00;29.00;;;;;;;13.70;100.00;164146.16;5051009;28;20810;-58
2022/06/07 05:48:15;;;;;;;33.78;28.85;;;;;;;13.64;100.00;164132.63;5053167;28;20037;-58
2022/06/07 05:50:43;;;;;;;34.78;27.95;;;;;;;13.57;100.00;164112.31;5051097;28;20057;-58
2022/06/07 05:53:09;;;;;;;33.28;28.30;;;;;;;13.78;100.00;164167.78;5052703;28;20025;-58
2022/06/07 05:55:34;;;;;;;31.08;27.63;;;;;;;13.88;100.00;164194.84;5051419;28;20052;-58
2022/06/07 05:58:00;;;;;;;31.92;28.33;;;;;;;13.88;100.00;164194.84;5060797;28;20024;-58
2022/06/07 06:00:26;;;;;;;39.00;29.63;;;;;;;13.92;100.00;164205.66;5060947;28;20123;-58
2022/06/07 06:02:51;;;;;;;33.20;29.65;;;;;;;13.84;100.00;164184.00;5062755;28;20199;-58
2022/06/07 06:05:17;;;;;;;36.05;31.55;;;;;;;13.84;100.00;164184.00;5062381;28;20048;-58
2022/06/07 06:10:27;;;;;;;32.88;28.45;;;;;;;13.96;100.00;164216.47;5060585;28;20136;-58
2022/06/07 06:12:53;;;;;;;32.70;29.10;;;;;;;13.93;100.00;164208.38;5061100;28;20013;-58
2022/06/07 06:15:18;;;;;;;31.95;28.15;;;;;;;14.04;100.00;164235.38;5061150;28;20170;-58
2022/06/07 06:17:44;;;;;;;34.65;30.88;;;;;;;13.93;100.00;164207.00;5064274;28;20028;-59
2022/06/07 06:20:10;;;;;;;34.35;31.05;;;;;;;13.72;100.00;164152.91;5070958;28;20028;-58
2022/06/07 06:22:36;;;;;;;36.50;32.75;;;;;;;13.67;100.00;164139.41;5071887;28;20021;-58
2022/06/07 06:25:02;;;;;;;34.13;30.67;;;;;;;13.55;100.00;164108.28;5064329;28;20053;-58
2022/06/07 06:27:30;;;;;;;34.30;30.70;;;;;;;13.60;100.00;164120.47;5060986;28;20020;-58
2022/06/07 06:29:56;;;;;;;39.72;33.67;;;;;;;13.62;100.00;164127.22;5059122;28;20032;-57
2022/06/07 06:32:21;;;;;;;38.25;33.78;;;;;;;13.48;100.00;164090.69;5061979;28;20097;-58
2022/06/07 06:34:46;;;;;;;35.70;31.95;;;;;;;13.31;100.00;164044.69;5061968;28;20031;-58
2022/06/07 06:37:12;;;;;;;35.58;31.95;;;;;;;13.31;100.00;164046.03;5058874;28;20099;-58
2022/06/07 06:39:37;;;;;;;43.65;32.55;;;;;;;13.23;100.00;164024.38;5069129;28;20032;-58
2022/06/07 06:42:03;;;;;;;37.25;33.38;;;;;;;13.10;100.00;163989.25;5060854;28;20037;-58
2022/06/07 06:44:28;;;;;;;37.28;31.35;;;;;;;13.07;100.00;163981.16;5065705;28;20500;-58
2022/06/07 06:46:54;;;;;;;34.63;30.88;;;;;;;13.17;100.00;164008.19;5061352;28;20032;-58
2022/06/07 06:49:20;;;;;;;38.78;34.13;;;;;;;13.18;100.00;164010.88;5061808;28;20033;-58
2022/06/07 06:51:47;;;;;;;38.65;34.50;;;;;;;13.28;100.00;164037.94;5060737;28;20039;-58
2022/06/07 06:54:14;;;;;;;37.88;32.92;;;;;;;13.28;100.00;164037.94;5059424;28;20380;-58
2022/06/07 06:56:39;;;;;;;34.53;29.00;;;;;;;13.41;100.00;164070.44;5055321;28;20037;-58
2022/06/07 06:59:05;;;;;;;36.72;32.97;;;;;;;13.45;100.00;164081.22;5059116;28;20048;-58
2022/06/07 07:01:33;;;;;;;33.67;30.20;;;;;;;13.59;100.00;164119.09;5062881;28;20029;-58
2022/06/07 07:04:01;;;;;;;34.58;31.00;;;;;;;13.66;100.00;164135.34;5060157;28;20029;-58
2022/06/07 07:06:27;;;;;;;34.10;30.50;;;;;;;13.76;100.00;164162.38;5060343;28;20047;-58
2022/06/07 07:08:52;;;;;;;33.13;29.80;;;;;;;13.95;100.00;164212.41;5059047;28;20027;-58
2022/06/07 07:11:23;;;;;;;41.38;27.65;;;;;;;14.06;100.00;164240.81;5059220;28;20041;-58
2022/06/07 07:13:51;;;;;;;31.52;27.00;;;;;;;13.87;100.00;164192.16;5058709;28;20032;-58
2022/06/07 07:16:19;;;;;;;30.65;27.83;;;;;;;13.85;100.00;164186.72;5057753;28;20131;-58
2022/06/07 07:18:46;;;;;;;29.52;26.65;;;;;;;13.83;100.00;164181.31;5060907;28;20017;-58
2022/06/07 07:21:15;;;;;;;30.25;27.48;;;;;;;13.81;100.00;164175.94;5057643;28;20123;-58
2022/06/07 07:23:41;;;;;;;30.02;26.10;;;;;;;13.98;100.00;164219.16;5061009;28;20028;-58
2022/06/07 07:26:11;;;;;;;32.85;28.02;;;;;;;14.12;100.00;164258.41;5061513;28;20052;-58
2022/06/07 07:28:38;;;;;;;29.63;24.70;;;;;;;-146.58;100.00;69501.63;5059654;28;20032;-58
2022/06/07 07:31:06;;;;;;;30.92;27.25;;;;;;;14.51;100.00;164359.88;5058580;28;20035;-58
2022/06/07 07:33:31;;;;;;;26.20;23.57;;;;;;;14.71;100.00;164411.31;5061433;28;20545;-59
2022/06/07 07:36:00;;;;;;;30.30;23.27;;;;;;;14.70;100.00;164408.66;5051691;28;20072;-58
2022/06/07 07:38:25;;;;;;;;;;;;;;;14.42;100.00;164335.50;5049668;28;20531;-58
2022/06/07 07:40:51;;;;;;;28.23;24.20;;;;;;;14.45;100.00;164343.66;5047722;28;20004;-58
2022/06/07 07:43:17;;;;;;;26.92;24.20;;;;;;;14.39;100.00;164327.41;5050693;28;20475;-58
2022/06/07 07:45:42;;;;;;;27.08;24.27;;;;;;;14.47;100.00;164349.06;5049380;28;20436;-58
2022/06/07 07:48:07;;;;;;;24.83;22.55;;;;;;;14.57;100.00;164376.09;5050778;28;20036;-57
2022/06/07 07:50:33;;;;;;;36.17;26.35;;;;;;;14.59;100.00;164381.53;5049143;28;20041;-57
2022/06/07 07:52:59;;;;;;;30.40;23.85;;;;;;;14.54;100.00;164368.00;5050527;28;20079;-58
2022/06/07 07:55:25;;;;;;;29.38;24.95;;;;;;;14.62;100.00;164386.94;5049162;28;20051;-58
2022/06/07 07:57:50;;;;;;;28.08;24.33;;;;;;;14.79;100.00;164432.97;5050301;28;20035;-58
2022/06/07 08:00:16;;;;;;;32.22;25.70;;;;;;;14.98;100.00;164481.72;5049442;28;20040;-58
2022/06/07 08:02:42;;;;;;;30.67;23.27;;;;;;;14.86;100.00;164451.91;5054376;28;20499;-58
2022/06/07 08:05:09;;;;;;;28.35;23.48;;;;;;;14.91;100.00;164464.09;5068416;28;20036;-58
2022/06/07 08:07:34;;;;;;;28.73;24.98;;;;;;;15.13;100.00;164522.31;5070431;28;20032;-58
2022/06/07 08:10:01;;;;;;;29.67;25.48;;;;;;;15.53;100.00;164626.56;5069027;28;20024;-58
2022/06/07 08:12:27;;;;;;;23.92;21.42;;;;;;;15.89;100.00;164720.03;5070085;28;20028;-58
2022/06/07 08:14:53;;;;;;;22.95;20.73;;;;;;;15.88;100.00;164718.66;5070069;28;20059;-58
2022/06/07 08:17:18;;;;;;;32.15;23.00;;;;;;;15.97;100.00;164743.03;5068891;28;20083;-58
2022/06/07 08:19:44;;;;;;;24.52;21.92;;;;;;;15.57;100.00;164636.03;5069910;28;20028;-58
2022/06/07 08:22:09;;;;;;;25.20;22.45;;;;;;;15.60;100.00;164644.16;5068835;28;20040;-58
2022/06/07 08:24:35;;;;;;;33.90;21.42;;;;;;;15.48;100.00;164613.03;5070303;28;20569;-58
2022/06/07 08:27:00;;;;;;;22.00;19.65;;;;;;;15.74;100.00;164682.06;5068375;28;20037;-58
2022/06/07 08:29:26;;;;;;;23.58;20.92;;;;;;;16.00;100.00;164751.19;5070097;28;20024;-58
2022/06/07 08:31:51;;;;;;;26.92;23.92;;;;;;;15.93;100.00;164730.84;5066023;28;20041;-58
2022/06/07 08:39:55;;;;;;;25.35;22.75;;;;;;;15.44;100.00;164602.16;5069129;28;20035;-56
2022/06/07 08:42:29;;;;;;;24.95;22.35;;;;;;;15.60;100.00;164644.16;5069441;28;20032;-58
2022/06/07 08:44:59;;;;;;;25.65;22.80;;;;;;;15.68;100.00;164665.78;5070099;28;20021;-58
2022/06/07 08:47:51;;;;;;;29.33;23.80;;;;;;;15.84;100.00;164709.19;5068815;28;20097;-57
2022/06/07 08:50:24;;;;;;;22.48;20.23;;;;;;;15.97;100.00;164741.72;5060961;28;20496;-58
2022/06/07 08:52:55;;;;;;;23.25;20.65;;;;;;;16.01;100.00;164752.53;5069708;28;20053;-58
2022/06/07 08:55:27;;;;;;;25.50;22.88;;;;;;;15.99;100.00;164747.09;5068630;28;20075;-58
2022/06/07 08:57:58;;;;;;;24.88;19.50;;;;;;;16.08;100.00;164771.47;5069728;28;20081;-58
2022/06/07 09:00:35;;;;;;;27.08;24.05;;;;;;;16.18;100.00;164798.56;5068839;28;20041;-58
2022/06/07 09:03:24;;;;;;;20.55;18.42;;;;;;;16.00;100.00;164749.81;5069712;28;20029;-58
2022/06/07 09:05:54;;;;;;;24.35;19.55;;;;;;;16.05;100.00;164763.31;5065230;28;20499;-58
2022/06/07 09:08:20;;;;;;;23.08;18.90;;;;;;;15.96;100.00;164739.00;5066852;28;20020;-57
2022/06/07 09:13:34;;;;;;;23.23;20.77;;;;;;;16.40;100.00;164855.47;5069789;28;20105;-58
2022/06/07 09:16:00;;;;;;;25.52;19.35;;;;;;;16.37;100.00;164847.31;5064864;28;20099;-58
2022/06/07 09:18:28;;;;;;;20.38;18.25;;;;;;;16.23;100.00;164809.41;5060003;28;20029;-59
2022/06/07 09:20:59;;;;;;;22.05;17.33;;;;;;;16.53;100.00;164887.94;5057538;28;20040;-58
2022/06/07 09:23:34;;;;;;;18.83;16.90;;;;;;;16.16;100.00;164793.16;5058317;28;20503;-58
2022/06/07 09:26:17;;;;;;;18.13;16.42;;;;;;;16.24;100.00;164812.09;5057593;28;20087;-59
2022/06/07 09:28:45;;;;;;;18.05;15.02;;;;;;;16.05;100.00;164763.31;5061476;28;20032;-58
2022/06/07 09:31:15;;;;;;;16.58;15.05;;;;;;;16.11;100.00;164779.63;5063205;28;20029;-58
2022/06/07 09:33:56;;;;;;;18.63;14.70;;;;;;;16.16;100.00;164791.75;5061334;28;20016;-58
2022/06/07 09:36:28;;;;;;;22.40;15.90;;;;;;;16.11;100.00;164779.63;5060059;28;20462;-58
2022/06/07 09:39:01;;;;;;;21.75;16.60;;;;;;;16.50;100.00;164882.53;5063349;28;20100;-58
2022/06/07 09:41:40;;;;;;;21.73;17.60;;;;;;;16.72;100.00;164938.06;5061243;28;20041;-58
2022/06/07 09:44:21;;;;;;;24.40;15.65;;;;;;;16.90;100.00;164985.50;5062420;28;20448;-58
2022/06/07 09:46:59;;;;;;;19.08;16.52;;;;;;;17.17;100.00;165055.97;5061029;28;20497;-58
2022/06/07 09:49:29;;;;;;;18.63;16.55;;;;;;;17.02;100.00;165016.72;5062456;28;20067;-59
2022/06/07 09:51:54;;;;;;;18.75;16.88;;;;;;;17.23;100.00;165073.63;5059614;28;20075;-58
2022/06/07 09:54:21;;;;;;;18.52;16.60;;;;;;;17.49;100.00;165140.03;5066964;28;20325;-58
2022/06/07 09:57:09;;;;;;;18.35;16.15;;;;;;;17.55;100.00;165156.28;5065786;28;20064;-58
2022/06/07 09:59:57;;;;;;;17.13;15.50;;;;;;;17.27;100.00;165083.09;5071737;28;20651;-58
2022/06/07 10:02:44;;;;;;;17.65;15.82;;;;;;;17.27;100.00;165084.50;5071445;28;20044;-58
2022/06/07 10:05:15;;;;;;;21.35;18.05;;;;;;;17.77;100.00;165215.91;5064684;28;20540;-58
2022/06/07 10:07:59;;;;;;;18.80;17.10;;;;;;;17.77;100.00;165214.56;5072345;28;20056;-58
2022/06/07 10:10:43;;;;;;;20.80;18.70;;;;;;;17.64;100.00;165180.69;5071003;28;20040;-57
2022/06/07 10:13:35;;;;;;;19.67;17.85;;;;;;;17.76;100.00;165211.84;5067698;28;20066;-58
2022/06/07 10:16:28;;;;;;;20.27;17.33;;;;;;;17.81;100.00;165224.06;5057819;28;20083;-58
2022/06/07 10:19:21;;;;;;;20.05;18.10;;;;;;;17.60;100.00;165171.19;5059638;28;20128;-58
2022/06/07 10:21:54;;;;;;;21.25;18.75;;;;;;;17.23;100.00;165072.28;5050832;28;20095;-58
2022/06/07 10:24:45;;;;;;;24.98;20.88;;;;;;;16.96;100.00;165003.19;5056359;28;20024;-58
2022/06/07 10:27:22;;;;;;;22.73;20.27;;;;;;;16.73;100.00;164940.78;5070574;28;20136;-58
2022/06/07 10:30:17;;;;;;;25.52;18.30;;;;;;;16.43;100.00;164862.22;5070095;28;20111;-58
2022/06/07 10:33:02;;;;;;;21.13;19.10;;;;;;;16.37;100.00;164847.31;5030506;28;20041;-58
2022/06/07 10:35:59;;;;;;;21.67;19.58;;;;;;;16.21;100.00;164803.97;5034827;28;20052;-57
2022/06/07 10:38:40;;;;;;;21.40;19.10;;;;;;;16.18;100.00;164798.56;5051212;28;20029;-57
2022/06/07 10:41:11;;;;;;;21.63;18.90;;;;;;;16.11;100.00;164779.63;5049650;28;20087;-58
2022/06/07 10:43:52;;;;;;;28.65;23.25;;;;;;;16.08;100.00;164770.16;5051904;28;20036;-58
2022/06/07 10:46:20;;;;;;;21.48;19.40;;;;;;;16.02;100.00;164756.56;5049335;28;20119;-58
2022/06/07 10:49:14;;;;;;;24.50;21.30;;;;;;;15.96;100.00;164739.00;5050962;28;20472;-57
2022/06/07 10:54:48;;;;;;;28.70;19.15;;;;;;;16.18;100.00;164797.19;5052201;28;20036;-57
2022/06/07 10:57:30;;;;;;;21.27;19.23;;;;;;;16.34;100.00;164839.22;5050290;28;20033;-57
2022/06/07 11:00:00;;;;;;;22.92;20.75;;;;;;;16.61;100.00;164909.63;5053765;28;20042;-58
2022/06/07 11:02:51;;;;;;;30.85;20.33;;;;;;;16.58;100.00;164901.47;5049443;28;20512;-57
2022/06/07 11:11:10;;;;;;;22.60;20.15;;;;;;;16.85;100.00;164973.28;5059466;28;20407;-57
2022/06/07 11:13:56;;;;;;;21.55;19.35;;;;;;;16.85;100.00;164971.97;5071023;28;20417;-57
2022/06/07 11:16:37;;;;;;;24.55;22.02;;;;;;;17.04;100.00;165023.47;5069687;28;20052;-58
2022/06/07 11:19:04;;;;;;;25.10;22.52;;;;;;;17.23;100.00;165073.63;5070747;28;20115;-58
2022/06/07 11:21:36;;;;;;;28.83;25.60;;;;;;;17.40;100.00;165118.31;5069854;28;20080;-58
2022/06/07 11:24:27;;;;;;;24.35;20.85;;;;;;;17.38;100.00;165111.56;5071110;28;20148;-57
2022/06/07 11:26:53;;;;;;;22.23;20.13;;;;;;;17.23;100.00;165072.28;5068980;28;20175;-57
2022/06/07 11:29:28;;;;;;;25.05;22.50;;;;;;;17.20;100.00;165064.13;5071182;28;20119;-58
2022/06/07 11:31:54;;;;;;;24.38;21.90;;;;;;;17.08;100.00;165034.34;5068996;28;20048;-58
2022/06/07 11:34:31;;;;;;;27.30;22.75;;;;;;;16.95;100.00;164999.06;5071041;28;20020;-58
2022/06/07 11:37:08;;;;;;;22.25;19.75;;;;;;;16.89;100.00;164982.78;5066580;28;20576;-58